Time;durP1;ratioP1;P1;durP2;ratioP2;P2;SDS_P1;SDS_P2;PMS_P1;PMS_P2;Temp;Humidity;BMP_temperature;BMP_pressure;BME280_temperature;BME280_humidity;BME280_pressure;Samples;Min_cycle;Max_cycle;Signal;HPM_P1;HPM_P2
2023/01/07 00:00:02;;;;;;;26.10;14.07;;;;;;;-6.48;76.38;101561.81;1747131;82;21357;-52
2023/01/07 00:03:07;;;;;;;31.02;16.05;;;;;;;-6.48;76.38;101576.45;1745467;81;21267;-53
2023/01/07 00:06:16;;;;;;;26.73;13.13;;;;;;;-6.55;76.30;101572.19;1748027;82;21227;-53
2023/01/07 00:09:23;;;;;;;26.07;13.13;;;;;;;-6.51;76.50;101572.55;1746599;82;21330;-53
2023/01/07 00:12:31;;;;;;;25.57;13.43;;;;;;;-6.48;76.47;101582.23;1744792;81;21212;-53
2023/01/07 00:15:36;;;;;;;22.52;12.73;;;;;;;-6.50;76.42;101586.75;1746047;82;21215;-53
2023/01/07 00:18:43;;;;;;;19.30;11.35;;;;;;;-6.49;76.47;101585.82;1746066;81;21208;-53
2023/01/07 00:21:50;;;;;;;22.70;10.98;;;;;;;-6.44;76.57;101589.25;1749409;81;21385;-53
2023/01/07 00:24:57;;;;;;;22.58;11.63;;;;;;;-6.45;76.49;101593.69;1745373;81;21200;-52
2023/01/07 00:28:02;;;;;;;20.35;11.05;;;;;;;-6.46;76.37;101596.39;1745943;81;21503;-52
2023/01/07 00:31:15;;;;;;;21.07;10.15;;;;;;;-6.54;76.28;101599.70;1745848;81;21338;-53
2023/01/07 00:34:22;;;;;;;19.35;10.78;;;;;;;-6.52;76.37;101600.55;1745853;81;21207;-55
2023/01/07 00:40:52;;;;;;;23.40;10.25;;;;;;;-6.37;76.51;101597.02;1745862;81;21267;-53
2023/01/07 00:43:58;;;;;;;19.85;10.23;;;;;;;-6.39;76.40;101601.98;1745960;81;21232;-54
2023/01/07 00:47:05;;;;;;;18.32;10.03;;;;;;;-6.38;76.38;101607.72;1746760;81;21204;-52
2023/01/07 00:50:14;;;;;;;18.32;8.70;;;;;;;-6.34;76.42;101610.26;1746047;81;21796;-54
2023/01/07 00:53:21;;;;;;;18.27;9.60;;;;;;;-6.23;76.54;101607.30;1746028;81;21223;-52
2023/01/07 00:56:28;;;;;;;18.52;10.13;;;;;;;-6.10;76.66;101619.38;1745854;81;21235;-52
2023/01/07 00:59:35;;;;;;;18.55;9.18;;;;;;;-6.07;76.52;101617.96;1745790;81;21232;-53
2023/01/07 01:02:40;;;;;;;15.65;9.15;;;;;;;-6.04;76.51;101609.03;1746005;81;21224;-53
2023/01/07 01:05:47;;;;;;;19.30;10.28;;;;;;;-5.97;76.55;101609.26;1746049;81;21199;-53
2023/01/07 01:08:55;;;;;;;18.17;10.08;;;;;;;-5.93;76.43;101617.60;1746536;81;21362;-53
2023/01/07 01:12:00;;;;;;;18.67;10.60;;;;;;;-5.99;76.24;101623.11;1746105;81;21219;-54
2023/01/07 01:15:06;;;;;;;17.98;9.95;;;;;;;-6.06;76.09;101625.51;1742185;81;21343;-54
2023/01/07 01:18:14;;;;;;;16.75;10.13;;;;;;;-6.11;75.95;101630.08;1745983;81;21274;-53
2023/01/07 01:21:21;;;;;;;19.65;11.38;;;;;;;-6.18;75.77;101627.19;1745751;81;21176;-52
2023/01/07 01:24:26;;;;;;;16.30;9.90;;;;;;;-6.32;75.66;101638.19;1744682;81;21212;-52
2023/01/07 01:27:32;;;;;;;18.12;9.45;;;;;;;-6.29;75.83;101638.98;1745992;82;21725;-52
2023/01/07 01:30:40;;;;;;;16.80;9.58;;;;;;;-6.29;75.82;101632.77;1746184;81;21231;-53
2023/01/07 01:33:47;;;;;;;21.12;9.55;;;;;;;-6.28;75.82;101627.89;1745902;82;21208;-54
2023/01/07 01:36:53;;;;;;;22.32;10.90;;;;;;;-6.31;75.79;101635.48;1746162;81;21378;-53
2023/01/07 01:40:02;;;;;;;17.07;10.10;;;;;;;-6.40;75.51;101642.83;1745827;81;21243;-54
2023/01/07 01:43:09;;;;;;;18.10;9.40;;;;;;;-6.63;75.25;101654.52;1745315;81;21295;-52
2023/01/07 01:46:35;;;;;;;15.43;9.13;;;;;;;-6.65;75.45;101659.89;1745960;82;21329;-52
2023/01/07 01:49:44;;;;;;;19.65;9.65;;;;;;;-6.66;75.41;101666.58;1745991;82;21184;-55
2023/01/07 01:53:04;;;;;;;21.37;10.78;;;;;;;-6.78;75.19;101665.53;1745836;82;21203;-52
2023/01/07 01:56:22;;;;;;;19.87;10.32;;;;;;;-6.92;75.09;101667.64;1745613;81;21299;-52
2023/01/07 01:59:32;;;;;;;24.32;12.13;;;;;;;-6.97;75.09;101670.41;1746150;81;21180;-53
2023/01/07 02:02:47;;;;;;;24.72;11.80;;;;;;;-7.02;75.08;101676.28;1743784;81;21275;-53
2023/01/07 02:05:54;;;;;;;20.50;10.40;;;;;;;-7.15;74.91;101676.61;1745942;81;21219;-53
2023/01/07 02:08:52;;;;;;;16.55;8.70;;;;;;;-7.39;74.60;101678.45;1745898;81;21235;-52
2023/01/07 02:12:12;;;;;;;16.80;8.48;;;;;;;-7.51;74.74;101682.67;1746278;81;21287;-52
2023/01/07 02:15:43;;;;;;;20.95;9.85;;;;;;;-7.44;75.03;101675.02;1745207;80;21453;-53
2023/01/07 02:19:27;;;;;;;15.83;7.90;;;;;;;-7.44;75.03;101672.35;1746512;82;21231;-52
2023/01/07 02:22:32;;;;;;;18.35;8.68;;;;;;;-7.44;75.14;101683.88;1746442;82;21283;-54
2023/01/07 02:25:57;;;;;;;17.15;8.53;;;;;;;-7.50;75.05;101680.47;1746360;82;21208;-53
2023/01/07 02:29:27;;;;;;;14.15;8.25;;;;;;;-7.51;75.25;101686.22;1746212;82;21244;-53
2023/01/07 02:33:10;;;;;;;19.32;9.48;;;;;;;-7.57;75.03;101683.70;1746146;82;21207;-53
2023/01/07 02:36:39;;;;;;;17.70;10.30;;;;;;;-7.70;74.83;101695.95;1746494;81;21208;-52
2023/01/07 02:39:58;;;;;;;15.55;8.00;;;;;;;-7.89;74.70;101695.39;1746341;82;21725;-53
2023/01/07 02:43:22;;;;;;;17.92;8.98;;;;;;;-7.97;74.67;101699.53;1740980;82;21685;-51
2023/01/07 02:46:42;;;;;;;18.73;8.80;;;;;;;-8.01;74.78;101746.96;1746199;82;21239;-54
2023/01/07 02:49:48;;;;;;;14.43;8.35;;;;;;;-8.26;74.42;101703.18;1746199;82;21180;-52
2023/01/07 02:52:55;;;;;;;16.65;8.00;;;;;;;-8.38;74.56;101707.38;1746191;82;21640;-53
2023/01/07 02:56:29;;;;;;;16.97;8.55;;;;;;;-8.40;74.65;101709.62;1746278;82;21220;-53
2023/01/07 02:59:56;;;;;;;17.07;8.30;;;;;;;-8.40;74.70;101706.96;1746139;82;21338;-51
2023/01/07 03:03:35;;;;;;;21.75;10.95;;;;;;;-8.37;74.92;101712.25;1746289;82;21279;-51
2023/01/07 03:07:10;;;;;;;26.40;12.30;;;;;;;-8.39;75.01;101723.34;1746231;82;21236;-53
2023/01/07 03:10:29;;;;;;;24.20;10.75;;;;;;;-8.51;74.73;101724.84;1746204;81;21181;-53
2023/01/07 03:13:44;;;;;;;28.30;12.45;;;;;;;-8.76;74.76;101731.43;1746243;82;21200;-52
2023/01/07 03:17:00;;;;;;;21.17;9.55;;;;;;;-8.76;74.76;101731.43;1745289;82;21180;-52
2023/01/07 03:20:06;;;;;;;24.67;9.78;;;;;;;-8.88;74.62;101743.12;1748766;82;21738;-52
2023/01/07 03:23:15;;;;;;;24.87;11.20;;;;;;;-9.11;74.61;101745.63;1748806;82;21235;-52
2023/01/07 03:26:21;;;;;;;16.57;8.40;;;;;;;-9.11;74.61;101745.63;1745827;82;21207;-52
2023/01/07 03:29:27;;;;;;;16.02;8.50;;;;;;;-9.20;74.40;101751.95;1748690;82;21347;-52
2023/01/07 03:32:39;;;;;;;16.40;8.85;;;;;;;-9.22;74.57;101749.75;1748851;82;21279;-51
2023/01/07 03:35:45;;;;;;;21.15;10.10;;;;;;;-9.20;74.93;101752.37;1749036;82;21216;-51
2023/01/07 03:38:52;;;;;;;22.48;11.45;;;;;;;-9.17;74.72;101762.50;1748618;82;21333;-52
2023/01/07 03:45:25;;;;;;;17.62;8.65;;;;;;;-9.16;74.86;101758.95;1748734;81;21184;-52
2023/01/07 03:48:31;;;;;;;20.77;9.78;;;;;;;-9.10;74.99;101760.19;1748791;82;21291;-51
2023/01/07 03:51:38;;;;;;;14.05;7.92;;;;;;;-9.15;74.78;101756.75;1748655;82;21215;-51
2023/01/07 03:54:43;;;;;;;17.95;8.78;;;;;;;-9.28;74.61;101760.88;1748716;82;21196;-52
2023/01/07 03:57:49;;;;;;;21.25;10.00;;;;;;;-9.35;74.56;101768.02;1748719;82;21223;-51
2023/01/07 04:01:00;;;;;;;18.15;9.90;;;;;;;-9.50;74.36;101768.21;1748866;82;21973;-52
2023/01/07 04:04:06;;;;;;;19.23;9.23;;;;;;;-9.51;74.51;101769.09;1744030;82;21196;-51
2023/01/07 04:07:12;;;;;;;15.83;8.05;;;;;;;-9.43;74.75;101771.20;1748728;82;21228;-50
2023/01/07 04:10:19;;;;;;;22.17;10.58;;;;;;;-9.39;74.71;101771.62;1748617;82;21763;-51
2023/01/07 04:13:25;;;;;;;17.70;8.83;;;;;;;-9.39;74.83;101769.82;1748721;82;21236;-51
2023/01/07 04:16:35;;;;;;;17.82;7.92;;;;;;;-9.36;74.81;101779.53;1747129;82;21304;-51
2023/01/07 04:19:40;;;;;;;15.00;7.55;;;;;;;-9.35;74.82;101781.27;1748779;82;21260;-53
2023/01/07 04:22:47;;;;;;;17.23;8.30;;;;;;;-9.33;74.87;101791.41;1748631;82;21220;-53
2023/01/07 04:25:55;;;;;;;15.00;7.53;;;;;;;-9.25;74.98;101799.27;1746631;82;21203;-53
2023/01/07 04:29:01;;;;;;;17.80;9.43;;;;;;;-9.24;74.96;101801.91;1747496;82;21248;-53
2023/01/07 04:32:07;;;;;;;14.53;7.42;;;;;;;-9.23;74.85;101806.77;1748876;82;21231;-53
2023/01/07 04:35:15;;;;;;;19.42;8.95;;;;;;;-9.24;74.87;101814.30;1748699;82;21200;-53
2023/01/07 04:38:22;;;;;;;15.40;7.17;;;;;;;-9.25;74.83;101808.11;1749014;82;21373;-51
2023/01/07 04:41:29;;;;;;;16.77;8.83;;;;;;;-9.25;74.81;101811.20;1748878;82;21192;-53
2023/01/07 04:44:35;;;;;;;16.90;7.65;;;;;;;-9.27;74.75;101812.55;1748713;82;21682;-53
2023/01/07 04:47:41;;;;;;;16.60;7.80;;;;;;;-9.27;74.72;101809.89;1748410;82;21279;-52
2023/01/07 04:50:49;;;;;;;17.25;8.58;;;;;;;-9.23;74.79;101812.07;1748301;82;21236;-53
2023/01/07 04:53:57;;;;;;;26.97;12.40;;;;;;;-9.19;74.81;101817.75;1748401;81;21223;-54
2023/01/07 04:57:03;;;;;;;26.07;11.97;;;;;;;-9.20;74.79;101822.63;1746031;82;21262;-54
2023/01/07 05:00:08;;;;;;;61.15;22.77;;;;;;;-9.20;74.78;101831.48;1748296;81;21219;-53
2023/01/07 05:03:15;;;;;;;24.70;12.58;;;;;;;-9.28;74.55;101833.33;1751831;81;21267;-53
2023/01/07 05:06:21;;;;;;;33.25;12.98;;;;;;;-9.44;74.39;101835.28;1747394;82;21195;-54
2023/01/07 05:09:26;;;;;;;18.12;8.55;;;;;;;-9.43;74.53;101834.81;1748112;82;21235;-53
2023/01/07 05:12:31;;;;;;;16.95;8.53;;;;;;;-9.40;74.59;101832.12;1747870;82;21216;-52
2023/01/07 05:15:37;;;;;;;20.17;9.35;;;;;;;-9.36;74.68;101837.84;1747921;82;21203;-54
2023/01/07 05:18:43;;;;;;;17.00;9.00;;;;;;;-9.32;74.72;101840.02;1724383;82;21291;-54
2023/01/07 05:21:50;;;;;;;24.05;9.95;;;;;;;-9.34;74.62;101846.66;1705140;84;21251;-53
2023/01/07 05:25:00;;;;;;;18.15;8.80;;;;;;;-9.35;74.64;101843.56;1705118;83;21222;-52
2023/01/07 05:28:08;;;;;;;21.48;9.28;;;;;;;-9.34;74.67;101854.61;1705267;84;21223;-53
2023/01/07 05:31:13;;;;;;;16.42;8.65;;;;;;;-9.32;74.71;101858.57;1705165;84;21220;-52
2023/01/07 05:34:19;;;;;;;39.15;19.12;;;;;;;-9.35;74.64;101856.38;1705118;84;21211;-54
2023/01/07 05:37:26;;;;;;;18.48;8.53;;;;;;;-9.35;74.66;101859.46;1705037;84;21844;-53
2023/01/07 05:40:34;;;;;;;16.27;8.05;;;;;;;-9.39;74.53;101869.68;1705152;84;21212;-53
2023/01/07 05:43:43;;;;;;;22.07;9.93;;;;;;;-9.48;74.37;101871.96;1705173;84;21192;-54
2023/01/07 05:46:48;;;;;;;21.50;9.53;;;;;;;-9.52;74.38;101878.63;1703099;83;21295;-53
2023/01/07 05:49:55;;;;;;;16.00;8.38;;;;;;;-9.44;74.51;101878.12;1702606;84;21365;-54
2023/01/07 05:53:01;;;;;;;17.50;8.60;;;;;;;-9.32;74.66;101892.13;1702377;82;21390;-53
2023/01/07 05:56:07;;;;;;;16.00;8.90;;;;;;;-9.32;74.66;101892.13;1702361;82;21415;-52
2023/01/07 05:59:14;;;;;;;22.85;9.00;;;;;;;-9.26;74.68;101911.08;1703671;84;21257;-52
2023/01/07 06:02:21;;;;;;;18.80;8.68;;;;;;;-9.37;74.43;101917.79;1668618;84;21251;-52
2023/01/07 06:05:21;;;;;;;19.85;9.73;;;;;;;-9.37;74.43;101917.79;1705475;83;21213;-52
2023/01/07 06:08:14;;;;;;;15.90;8.68;;;;;;;-9.27;74.50;101916.41;1668486;84;21243;-52
2023/01/07 06:11:04;;;;;;;23.83;9.90;;;;;;;-9.20;74.53;101918.97;1667946;84;21644;-52
2023/01/07 06:13:57;;;;;;;16.85;8.05;;;;;;;-9.16;74.47;101927.78;1652474;85;21220;-51
2023/01/07 06:16:45;;;;;;;23.02;9.10;;;;;;;-9.23;74.30;101929.61;1702300;82;21240;-51
2023/01/07 06:19:44;;;;;;;23.00;10.10;;;;;;;-9.21;74.25;101938.87;1709662;80;21302;-52
2023/01/07 06:22:50;;;;;;;18.50;8.25;;;;;;;-9.21;74.25;101938.87;1721071;81;21290;-53
2023/01/07 06:25:56;;;;;;;19.82;8.35;;;;;;;-9.12;74.37;101940.98;1719485;83;21591;-51
2023/01/07 06:29:02;;;;;;;25.30;9.83;;;;;;;-9.09;74.37;101944.93;1719579;83;21258;-51
2023/01/07 06:32:09;;;;;;;19.40;8.70;;;;;;;-9.03;74.28;101950.16;1719905;83;21223;-52
2023/01/07 06:35:17;;;;;;;14.93;6.12;;;;;;;-8.95;74.18;101949.64;1718906;83;21236;-51
2023/01/07 06:38:22;;;;;;;22.80;10.78;;;;;;;-8.95;74.18;101949.64;1686558;83;21749;-52
2023/01/07 06:41:29;;;;;;;23.95;9.45;;;;;;;-8.98;74.09;101953.66;1718803;83;21239;-53
2023/01/07 06:44:37;;;;;;;24.82;10.93;;;;;;;-8.91;74.10;101959.78;1718649;83;21219;-51
2023/01/07 06:47:44;;;;;;;21.20;9.88;;;;;;;-8.83;74.17;101965.41;1720447;83;21295;-51
2023/01/07 06:50:51;;;;;;;28.85;9.83;;;;;;;-8.74;74.16;101969.31;1718683;83;21223;-52
2023/01/07 06:53:59;;;;;;;24.45;11.18;;;;;;;-8.71;74.12;101963.97;1702344;83;21753;-52
2023/01/07 06:57:06;;;;;;;25.40;9.58;;;;;;;-8.71;74.12;101963.97;1718397;83;21219;-52
2023/01/07 07:00:15;;;;;;;22.62;7.10;;;;;;;-8.59;74.12;101967.80;1719309;83;21270;-52
2023/01/07 07:03:22;;;;;;;18.17;9.28;;;;;;;-8.55;73.97;101977.94;1719033;83;21295;-52
2023/01/07 07:06:29;;;;;;;24.82;10.10;;;;;;;-8.69;73.64;101977.22;1719182;83;21226;-51
2023/01/07 07:09:36;;;;;;;18.98;9.50;;;;;;;-8.77;73.58;101989.25;1719224;83;21370;-51
2023/01/07 07:12:43;;;;;;;25.27;10.63;;;;;;;-8.67;73.32;101992.69;1719280;83;21633;-52
2023/01/07 07:15:49;;;;;;;18.45;9.35;;;;;;;-8.67;73.32;101992.69;1718287;83;21756;-51
2023/01/07 07:18:55;;;;;;;22.32;9.43;;;;;;;-8.77;73.30;101999.87;1686374;85;21220;-52
2023/01/07 07:22:03;;;;;;;18.15;8.55;;;;;;;-8.91;73.17;102001.75;1686061;84;21216;-51
2023/01/07 07:25:11;;;;;;;14.40;7.28;;;;;;;-8.85;73.40;102005.70;1686566;85;21220;-52
2023/01/07 07:28:17;;;;;;;19.73;9.68;;;;;;;-8.73;73.54;102008.21;1720571;83;22120;-52
2023/01/07 07:31:26;;;;;;;21.73;9.93;;;;;;;-8.79;73.54;102016.67;1719255;83;21231;-52
2023/01/07 07:34:33;;;;;;;17.05;8.45;;;;;;;-8.79;73.54;102016.67;1719335;83;21705;-52
2023/01/07 07:37:41;;;;;;;20.55;9.40;;;;;;;-8.71;73.40;102025.44;1719171;83;21239;-52
2023/01/07 07:40:48;;;;;;;22.25;10.93;;;;;;;-8.68;73.35;102024.08;1719133;83;21228;-50
2023/01/07 07:43:54;;;;;;;17.65;8.80;;;;;;;-8.55;73.30;102030.59;1719122;83;21819;-51
2023/01/07 07:47:00;;;;;;;16.77;7.97;;;;;;;-8.55;73.30;102030.59;1719145;83;21279;-51
2023/01/07 07:50:06;;;;;;;16.97;9.28;;;;;;;-8.40;73.64;102031.73;1719270;83;21260;-51
2023/01/07 07:53:14;;;;;;;13.85;7.95;;;;;;;-8.42;73.31;102026.87;1719107;83;21220;-51
2023/01/07 07:56:20;;;;;;;19.60;9.15;;;;;;;-8.42;73.31;102026.87;1719131;83;21173;-50
2023/01/07 07:59:28;;;;;;;21.80;9.10;;;;;;;-8.33;73.49;102021.48;1686356;85;21418;-51
2023/01/07 08:02:35;;;;;;;13.50;7.42;;;;;;;-8.19;73.55;102030.13;1718767;83;21359;-51
2023/01/07 08:05:41;;;;;;;18.23;7.55;;;;;;;-8.06;73.68;102029.08;1718934;83;21239;-54
2023/01/07 08:08:47;;;;;;;20.00;9.10;;;;;;;-8.04;73.43;102023.28;1719147;83;21215;-52
2023/01/07 08:11:53;;;;;;;18.92;8.98;;;;;;;-7.87;73.30;102031.04;1696107;83;21240;-52
2023/01/07 08:14:59;;;;;;;16.05;8.58;;;;;;;-7.87;73.30;102049.64;1718796;83;21220;-52
2023/01/07 08:18:09;;;;;;;21.05;8.85;;;;;;;-7.95;73.37;102036.46;1718527;83;21239;-51
2023/01/07 08:21:16;;;;;;;13.80;7.30;;;;;;;-7.89;73.31;102035.05;1686744;83;21296;-52
2023/01/07 08:24:22;;;;;;;18.52;8.48;;;;;;;-7.75;73.38;102042.82;1686165;85;21291;-52
2023/01/07 08:27:29;;;;;;;17.67;10.32;;;;;;;-7.65;73.35;102044.90;1658324;86;21269;-51
2023/01/07 08:30:36;;;;;;;19.15;8.98;;;;;;;-7.65;73.08;102040.91;1719634;83;21251;-51
2023/01/07 08:33:42;;;;;;;16.77;8.48;;;;;;;-7.58;73.18;102042.59;1718725;83;21200;-51
2023/01/07 08:36:49;;;;;;;15.25;8.75;;;;;;;-7.50;73.06;102040.27;1718756;83;21267;-52
2023/01/07 08:39:56;;;;;;;19.77;10.68;;;;;;;-7.43;73.05;102045.02;1686179;83;21785;-52
2023/01/07 08:43:11;;;;;;;20.50;8.95;;;;;;;-7.53;72.70;102042.09;1717076;83;21244;-52
2023/01/07 08:46:17;;;;;;;15.93;9.10;;;;;;;-7.61;72.61;102044.83;1718806;83;21255;-52
2023/01/07 08:49:24;;;;;;;16.42;7.95;;;;;;;-7.59;72.70;102034.20;1686640;83;21359;-52
2023/01/07 08:52:31;;;;;;;18.17;9.05;;;;;;;-7.63;72.57;102034.70;1718492;83;21240;-51
2023/01/07 08:55:36;;;;;;;17.20;8.73;;;;;;;-7.59;72.67;102038.20;1686023;85;21730;-51
2023/01/07 08:58:44;;;;;;;20.00;9.88;;;;;;;-7.53;72.70;102034.11;1718054;83;21208;-51
2023/01/07 09:01:51;;;;;;;20.95;9.95;;;;;;;-7.40;72.87;102035.69;1718769;83;21729;-52
2023/01/07 09:04:59;;;;;;;17.27;8.33;;;;;;;-7.20;73.08;102037.58;1718642;83;22131;-51
2023/01/07 09:08:06;;;;;;;17.65;7.90;;;;;;;-7.11;72.99;102029.44;1688015;85;21299;-51
2023/01/07 09:11:12;;;;;;;16.65;7.97;;;;;;;-7.08;72.81;102026.28;1719343;82;21729;-51
2023/01/07 09:14:21;;;;;;;21.12;10.13;;;;;;;-7.04;72.75;102029.78;1720409;83;21302;-50
2023/01/07 09:17:26;;;;;;;17.20;8.78;;;;;;;-6.91;72.84;102034.00;1720583;83;21244;-52
2023/01/07 09:20:33;;;;;;;32.33;14.63;;;;;;;-6.77;72.85;102030.16;1720429;83;21258;-52
2023/01/07 09:23:39;;;;;;;22.20;10.58;;;;;;;-6.78;72.72;102022.20;1740186;80;21223;-51
2023/01/07 09:26:46;;;;;;;34.73;15.25;;;;;;;-6.72;72.70;102019.43;1747597;82;21552;-51
2023/01/07 09:29:53;;;;;;;22.13;10.40;;;;;;;-6.84;72.35;102015.67;1748050;82;21200;-52
2023/01/07 09:32:58;;;;;;;20.57;10.10;;;;;;;-6.73;72.62;102017.69;1747984;82;21789;-50
2023/01/07 09:36:05;;;;;;;22.90;11.45;;;;;;;-6.60;72.67;102024.55;1735746;82;21235;-50
2023/01/07 09:39:12;;;;;;;26.00;13.38;;;;;;;-6.52;72.69;102016.86;1691097;84;21212;-51
2023/01/07 09:42:34;;;;;;;10.88;7.17;;;;;;;-6.48;72.48;102014.54;1690014;84;21239;-52
2023/01/07 09:45:50;;;;;;;13.00;7.53;;;;;;;-6.51;72.38;102010.61;1658944;85;21216;-50
2023/01/07 09:49:00;;;;;;;24.75;10.80;;;;;;;-6.50;72.28;102011.02;1632589;87;21241;-51
2023/01/07 09:52:12;;;;;;;18.67;9.20;;;;;;;-6.47;72.19;102006.96;1690883;84;21270;-50
2023/01/07 09:55:43;;;;;;;16.10;7.60;;;;;;;-6.48;72.04;102004.33;1676947;83;21218;-51
2023/01/07 09:58:52;;;;;;;21.00;9.08;;;;;;;-6.45;72.13;102006.48;1747603;82;21223;-50
2023/01/07 10:02:11;;;;;;;23.30;12.33;;;;;;;-6.44;71.93;102011.38;1747686;82;21232;-50
2023/01/07 10:05:41;;;;;;;21.25;8.48;;;;;;;-6.64;71.51;102012.18;1721801;82;21208;-50
2023/01/07 10:08:55;;;;;;;15.70;8.15;;;;;;;-6.80;71.54;102016.06;1716308;83;21227;-51
2023/01/07 10:12:21;;;;;;;15.10;7.65;;;;;;;-6.70;71.87;102014.97;1716330;83;21721;-50
2023/01/07 10:16:01;;;;;;;16.85;8.90;;;;;;;-6.51;72.18;102011.05;1716039;83;21799;-50
2023/01/07 10:19:32;;;;;;;18.05;9.70;;;;;;;-6.41;72.19;102009.53;1716397;83;21591;-50
2023/01/07 10:22:57;;;;;;;15.00;7.80;;;;;;;-6.24;72.24;102005.19;1716716;83;21236;-50
2023/01/07 10:26:05;;;;;;;15.50;8.35;;;;;;;-6.20;72.10;102007.75;1716854;83;21271;-50
2023/01/07 10:29:43;;;;;;;19.48;9.65;;;;;;;-6.02;72.38;102005.64;1719525;81;21244;-50
2023/01/07 10:32:50;;;;;;;17.02;6.80;;;;;;;-5.78;72.61;102003.27;1720354;83;21243;-50
2023/01/07 10:35:56;;;;;;;16.55;8.38;;;;;;;-5.67;72.38;102009.23;1714444;83;21263;-49
2023/01/07 10:39:32;;;;;;;12.33;7.30;;;;;;;-5.67;72.15;102021.23;1711803;84;21888;-52
2023/01/07 10:42:57;;;;;;;14.00;7.70;;;;;;;-5.71;71.91;102009.34;1711719;84;21288;-50
2023/01/07 10:46:10;;;;;;;17.80;7.80;;;;;;;-5.91;71.51;102005.81;1690327;85;21286;-50
2023/01/07 10:49:41;;;;;;;15.72;7.75;;;;;;;-5.96;71.42;102005.02;1690735;85;21231;-51
2023/01/07 10:52:58;;;;;;;15.68;7.75;;;;;;;-5.92;71.38;101996.52;1701318;83;21879;-50
2023/01/07 10:56:27;;;;;;;15.80;8.48;;;;;;;-5.87;71.54;101995.52;1715581;83;21227;-50
2023/01/07 10:59:34;;;;;;;15.15;7.40;;;;;;;-5.72;71.65;102003.13;1712267;83;21204;-50
2023/01/07 11:02:41;;;;;;;15.83;6.85;;;;;;;-5.72;71.44;101998.27;1710255;83;21272;-50
2023/01/07 11:05:50;;;;;;;17.82;7.80;;;;;;;-5.70;71.39;101998.64;1712804;83;21192;-50
2023/01/07 11:08:56;;;;;;;14.83;7.78;;;;;;;-5.59;71.49;101989.05;1713171;83;22026;-50
2023/01/07 11:12:01;;;;;;;16.23;8.73;;;;;;;-5.39;71.75;101991.67;1715403;82;21733;-50
2023/01/07 11:15:12;;;;;;;15.85;8.65;;;;;;;-5.21;71.79;101996.58;1672666;85;21275;-51
2023/01/07 11:18:30;;;;;;;18.40;8.48;;;;;;;-5.22;71.38;101987.28;1689050;84;21256;-50
2023/01/07 11:21:58;;;;;;;25.08;9.73;;;;;;;-5.23;71.21;101993.06;1689355;85;21215;-50
2023/01/07 11:25:03;;;;;;;26.48;9.85;;;;;;;-5.23;71.16;101997.55;1704705;83;22056;-50
2023/01/07 11:28:09;;;;;;;14.03;7.92;;;;;;;-5.13;71.38;101999.94;1707589;84;21250;-50
2023/01/07 11:31:16;;;;;;;16.23;8.65;;;;;;;-5.00;71.43;101998.72;1706887;84;21294;-51
2023/01/07 11:38:04;;;;;;;15.65;7.87;;;;;;;-4.95;71.13;101990.11;1690920;84;21282;-49
2023/01/07 11:41:13;;;;;;;16.35;8.38;;;;;;;-5.18;70.68;101999.17;1690050;84;21215;-50
2023/01/07 11:44:23;;;;;;;21.50;8.95;;;;;;;-5.35;70.72;101994.70;1690483;84;21207;-49
2023/01/07 11:47:29;;;;;;;19.35;8.38;;;;;;;-5.35;70.86;101997.38;1691007;84;21228;-49
2023/01/07 11:50:46;;;;;;;13.80;7.37;;;;;;;-5.36;70.88;101990.27;1712327;82;21219;-50
2023/01/07 11:54:04;;;;;;;16.35;8.28;;;;;;;-5.27;70.99;102000.73;1719795;83;21217;-49
2023/01/07 11:57:30;;;;;;;15.98;7.72;;;;;;;-5.26;70.73;102001.59;1722548;82;21219;-50
2023/01/07 12:00:37;;;;;;;18.57;8.25;;;;;;;-5.28;70.73;102002.97;1691170;84;21263;-49
2023/01/07 12:03:49;;;;;;;17.23;8.80;;;;;;;-5.05;71.06;101998.41;1702929;81;21483;-50
2023/01/07 12:06:57;;;;;;;20.85;9.35;;;;;;;-5.00;70.78;102003.17;1744920;82;21228;-49
2023/01/07 12:10:04;;;;;;;16.95;8.20;;;;;;;-5.16;70.55;102004.02;1732366;82;21222;-49
2023/01/07 12:13:26;;;;;;;13.45;6.53;;;;;;;-5.13;70.62;102007.06;1716034;83;21397;-51
2023/01/07 12:16:35;;;;;;;18.60;7.55;;;;;;;-5.14;70.49;101998.20;1720325;82;21726;-50
2023/01/07 12:20:26;;;;;;;18.60;9.55;;;;;;;-5.15;70.55;102007.09;1719102;83;21211;-50
2023/01/07 12:23:56;;;;;;;16.02;8.38;;;;;;;-5.21;70.36;102005.92;1719563;83;21538;-50
2023/01/07 12:27:20;;;;;;;17.92;7.75;;;;;;;-5.49;70.04;102007.50;1708189;83;21236;-50
2023/01/07 12:30:51;;;;;;;15.93;7.90;;;;;;;-5.58;70.16;102001.50;1703694;84;21240;-50
2023/01/07 12:34:25;;;;;;;18.48;8.25;;;;;;;-5.55;70.34;102000.95;1669465;86;21433;-50
2023/01/07 12:37:43;;;;;;;17.87;7.35;;;;;;;-5.49;70.37;102010.16;1703749;84;21236;-50
2023/01/07 12:41:10;;;;;;;15.95;7.60;;;;;;;-5.42;70.63;102007.76;1702904;84;21574;-49
2023/01/07 12:44:27;;;;;;;17.07;8.03;;;;;;;-5.32;70.63;102016.42;1658868;85;22126;-51
2023/01/07 12:47:40;;;;;;;16.82;8.23;;;;;;;-5.22;70.78;102013.52;1647732;85;21357;-51
2023/01/07 12:50:50;;;;;;;16.62;7.87;;;;;;;-5.09;70.80;102004.27;1683021;84;21254;-51
2023/01/07 12:54:10;;;;;;;17.57;8.07;;;;;;;-4.98;70.82;102012.89;1705062;84;21209;-51
2023/01/07 12:57:30;;;;;;;22.22;9.08;;;;;;;-4.93;70.78;102008.31;1704742;83;21271;-51
2023/01/07 13:00:39;;;;;;;21.60;7.75;;;;;;;-4.84;70.82;102016.11;1704520;84;21777;-49
2023/01/07 13:04:32;;;;;;;15.98;8.70;;;;;;;-4.70;70.89;102022.42;1695745;83;21275;-51
2023/01/07 13:07:49;;;;;;;14.93;7.75;;;;;;;-4.62;70.72;102026.66;1700455;83;21260;-50
2023/01/07 13:11:02;;;;;;;15.00;7.62;;;;;;;-4.55;70.74;102026.48;1704150;84;21216;-49
2023/01/07 13:14:08;;;;;;;20.40;9.58;;;;;;;-4.56;70.56;102025.59;1705121;83;21789;-50
2023/01/07 13:17:25;;;;;;;14.43;8.73;;;;;;;-4.55;70.49;102030.01;1705451;84;21413;-51
2023/01/07 13:21:06;;;;;;;16.85;8.25;;;;;;;-4.61;70.26;102039.08;1705071;84;21200;-51
2023/01/07 13:24:45;;;;;;;16.95;8.73;;;;;;;-4.91;69.82;102052.33;1704936;84;21220;-51
2023/01/07 13:28:25;;;;;;;15.50;7.55;;;;;;;-5.08;69.75;102055.43;1669753;82;21261;-50
2023/01/07 13:31:58;;;;;;;19.80;8.73;;;;;;;-5.24;69.96;102062.05;1696458;83;21285;-50
2023/01/07 13:35:36;;;;;;;18.82;8.93;;;;;;;-5.23;70.21;102075.80;1719927;83;21670;-50
2023/01/07 13:39:28;;;;;;;19.65;9.50;;;;;;;-5.39;70.08;102072.20;1720538;83;21280;-51
2023/01/07 13:42:58;;;;;;;21.42;8.70;;;;;;;-5.65;69.76;102074.09;1720995;83;21655;-52
2023/01/07 13:46:13;;;;;;;21.50;7.83;;;;;;;-5.83;69.91;102078.50;1721028;83;21180;-50
2023/01/07 13:49:37;;;;;;;19.25;8.33;;;;;;;-5.85;70.10;102077.66;1720712;83;21274;-49
2023/01/07 13:52:47;;;;;;;24.60;10.18;;;;;;;-5.90;70.28;102091.56;1703333;83;21432;-50
2023/01/07 13:55:56;;;;;;;16.87;9.03;;;;;;;-5.83;70.46;102088.28;1720870;83;21354;-51
2023/01/07 13:59:03;;;;;;;24.12;9.73;;;;;;;-5.96;70.13;102091.66;1720813;83;21184;-51
2023/01/07 14:02:24;;;;;;;20.27;9.28;;;;;;;-6.10;70.08;102093.72;1720715;83;21299;-53
2023/01/07 14:05:35;;;;;;;19.98;8.85;;;;;;;-6.18;70.13;102100.13;1720951;83;21740;-51
2023/01/07 14:08:41;;;;;;;15.53;7.97;;;;;;;-6.24;70.11;102099.77;1721267;83;21312;-50
2023/01/07 14:12:28;;;;;;;20.02;9.48;;;;;;;-6.44;69.84;102108.59;1721071;83;21419;-49
2023/01/07 14:15:48;;;;;;;24.67;10.00;;;;;;;-6.45;70.19;102104.14;1720927;83;21212;-50
2023/01/07 14:19:05;;;;;;;19.57;8.98;;;;;;;-6.39;70.42;102104.92;1720884;83;21409;-50
2023/01/07 14:22:30;;;;;;;19.87;8.83;;;;;;;-6.49;70.31;102113.11;1720881;83;21214;-51
2023/01/07 14:25:50;;;;;;;20.12;9.73;;;;;;;-6.55;70.38;102112.75;1721053;83;21188;-50
2023/01/07 14:29:30;;;;;;;29.98;17.42;;;;;;;-6.59;70.35;102123.48;1705939;82;21378;-51
2023/01/07 14:32:45;;;;;;;22.40;10.78;;;;;;;-6.79;70.19;102125.61;1703194;84;21212;-50
2023/01/07 14:36:05;;;;;;;25.25;12.63;;;;;;;-6.91;70.18;102136.47;1703153;84;21260;-50
2023/01/07 14:39:11;;;;;;;30.82;12.30;;;;;;;-6.91;70.34;102141.78;1682140;84;21251;-49
2023/01/07 14:42:49;;;;;;;27.50;11.90;;;;;;;-7.01;70.18;102148.14;1703169;84;21283;-56
2023/01/07 14:45:58;;;;;;;30.62;14.80;;;;;;;-7.01;70.40;102139.72;1703051;84;21204;-49
2023/01/07 14:49:12;;;;;;;55.43;22.87;;;;;;;-7.00;70.38;102139.24;1703297;83;21256;-50